sensor_id;sensor_type;location;lat;lon;timestamp;pressure;altitude;pressure_sealevel;temperature;humidity
62055;BME280;48653;51.742;-1.256;2023-01-26T00:05:08;102319.94;;;4.10;54.31
62055;BME280;48653;51.742;-1.256;2023-01-26T00:07:34;102322.08;;;4.74;53.84
62055;BME280;48653;51.742;-1.256;2023-01-26T00:09:59;102322.17;;;4.12;55.25
62055;BME280;48653;51.742;-1.256;2023-01-26T00:12:24;102319.16;;;4.88;54.77
62055;BME280;48653;51.742;-1.256;2023-01-26T00:14:49;102323.62;;;4.28;55.74
62055;BME280;48653;51.742;-1.256;2023-01-26T00:17:17;102323.75;;;4.08;56.30
62055;BME280;48653;51.742;-1.256;2023-01-26T00:19:40;102314.77;;;4.56;54.76
62055;BME280;48653;51.742;-1.256;2023-01-26T00:22:06;102318.54;;;4.03;55.22
62055;BME280;48653;51.742;-1.256;2023-01-26T00:24:31;102317.12;;;4.63;53.45
62055;BME280;48653;51.742;-1.256;2023-01-26T00:26:56;102316.53;;;5.00;52.88
62055;BME280;48653;51.742;-1.256;2023-01-26T00:29:22;102321.15;;;4.60;53.42
62055;BME280;48653;51.742;-1.256;2023-01-26T00:31:49;102313.21;;;4.88;52.60
62055;BME280;48653;51.742;-1.256;2023-01-26T00:34:13;102305.91;;;4.79;52.28
62055;BME280;48653;51.742;-1.256;2023-01-26T00:36:38;102305.98;;;4.53;52.65
62055;BME280;48653;51.742;-1.256;2023-01-26T00:39:04;102310.81;;;4.78;52.52
62055;BME280;48653;51.742;-1.256;2023-01-26T00:41:30;102317.90;;;3.60;54.41
62055;BME280;48653;51.742;-1.256;2023-01-26T00:43:55;102314.80;;;4.86;52.66
62055;BME280;48653;51.742;-1.256;2023-01-26T00:46:20;102313.81;;;4.00;53.09
62055;BME280;48653;51.742;-1.256;2023-01-26T00:48:45;102319.05;;;3.69;53.86
62055;BME280;48653;51.742;-1.256;2023-01-26T00:51:11;102319.69;;;4.63;53.40
62055;BME280;48653;51.742;-1.256;2023-01-26T00:53:36;102312.44;;;4.51;53.10
62055;BME280;48653;51.742;-1.256;2023-01-26T00:56:01;102315.23;;;3.51;54.57
62055;BME280;48653;51.742;-1.256;2023-01-26T00:58:27;102310.18;;;4.74;52.56
62055;BME280;48653;51.742;-1.256;2023-01-26T01:00:52;102303.97;;;4.62;52.20
62055;BME280;48653;51.742;-1.256;2023-01-26T01:03:18;102309.89;;;4.12;52.72
62055;BME280;48653;51.742;-1.256;2023-01-26T01:05:43;102313.24;;;3.89;54.20
62055;BME280;48653;51.742;-1.256;2023-01-26T01:08:09;102319.90;;;3.50;54.54
62055;BME280;48653;51.742;-1.256;2023-01-26T01:10:34;102317.40;;;3.64;54.93
62055;BME280;48653;51.742;-1.256;2023-01-26T01:12:59;102322.82;;;4.35;53.57
62055;BME280;48653;51.742;-1.256;2023-01-26T01:15:25;102326.40;;;3.38;54.95
62055;BME280;48653;51.742;-1.256;2023-01-26T01:17:50;102328.24;;;3.97;54.59
62055;BME280;48653;51.742;-1.256;2023-01-26T01:22:41;102332.65;;;3.89;54.43
62055;BME280;48653;51.742;-1.256;2023-01-26T01:25:07;102326.24;;;3.85;54.10
62055;BME280;48653;51.742;-1.256;2023-01-26T01:27:33;102323.56;;;3.78;54.10
62055;BME280;48653;51.742;-1.256;2023-01-26T01:29:58;102321.96;;;3.75;54.31
62055;BME280;48653;51.742;-1.256;2023-01-26T01:32:25;102324.63;;;3.97;53.93
62055;BME280;48653;51.742;-1.256;2023-01-26T01:34:50;102330.35;;;4.10;53.95
62055;BME280;48653;51.742;-1.256;2023-01-26T01:37:16;102332.37;;;3.20;54.77
62055;BME280;48653;51.742;-1.256;2023-01-26T01:39:41;102324.77;;;3.45;54.17
62055;BME280;48653;51.742;-1.256;2023-01-26T01:42:07;102330.53;;;3.72;54.37
62055;BME280;48653;51.742;-1.256;2023-01-26T01:44:34;102334.21;;;3.06;54.67
62055;BME280;48653;51.742;-1.256;2023-01-26T01:47:00;102333.27;;;3.82;54.22
62055;BME280;48653;51.742;-1.256;2023-01-26T01:49:27;102335.29;;;3.19;54.88
62055;BME280;48653;51.742;-1.256;2023-01-26T01:51:52;102331.66;;;3.40;55.05
62055;BME280;48653;51.742;-1.256;2023-01-26T01:54:17;102336.36;;;2.98;56.53
62055;BME280;48653;51.742;-1.256;2023-01-26T01:56:41;102338.88;;;3.69;54.19
62055;BME280;48653;51.742;-1.256;2023-01-26T01:59:05;102342.65;;;3.43;55.21
62055;BME280;48653;51.742;-1.256;2023-01-26T02:01:30;102337.72;;;3.50;54.56
62055;BME280;48653;51.742;-1.256;2023-01-26T02:03:59;102336.26;;;3.65;54.26
62055;BME280;48653;51.742;-1.256;2023-01-26T02:06:23;102336.50;;;4.27;53.21
62055;BME280;48653;51.742;-1.256;2023-01-26T02:08:48;102336.89;;;3.06;55.35
62055;BME280;48653;51.742;-1.256;2023-01-26T02:11:15;102335.89;;;3.46;55.76
62055;BME280;48653;51.742;-1.256;2023-01-26T02:13:37;102339.23;;;3.11;55.62
62055;BME280;48653;51.742;-1.256;2023-01-26T02:16:03;102333.34;;;3.44;54.81
62055;BME280;48653;51.742;-1.256;2023-01-26T02:18:28;102337.45;;;3.57;55.33
62055;BME280;48653;51.742;-1.256;2023-01-26T02:20:56;102330.27;;;3.87;53.86
62055;BME280;48653;51.742;-1.256;2023-01-26T02:23:26;102329.29;;;3.46;53.96
62055;BME280;48653;51.742;-1.256;2023-01-26T02:28:09;102331.68;;;3.82;53.80
62055;BME280;48653;51.742;-1.256;2023-01-26T02:30:35;102332.41;;;4.07;53.80
62055;BME280;48653;51.742;-1.256;2023-01-26T02:33:01;102336.68;;;4.51;53.23
62055;BME280;48653;51.742;-1.256;2023-01-26T02:35:26;102339.59;;;3.95;53.23
62055;BME280;48653;51.742;-1.256;2023-01-26T02:37:51;102339.87;;;3.78;54.06
62055;BME280;48653;51.742;-1.256;2023-01-26T02:40:24;102342.67;;;3.81;54.55
62055;BME280;48653;51.742;-1.256;2023-01-26T02:42:42;102349.79;;;3.25;54.88
62055;BME280;48653;51.742;-1.256;2023-01-26T02:45:10;102350.07;;;2.67;56.43
62055;BME280;48653;51.742;-1.256;2023-01-26T02:47:34;102352.02;;;3.56;54.88
62055;BME280;48653;51.742;-1.256;2023-01-26T02:49:59;102358.88;;;3.00;55.60
62055;BME280;48653;51.742;-1.256;2023-01-26T02:52:26;102358.06;;;4.63;53.38
62055;BME280;48653;51.742;-1.256;2023-01-26T02:54:50;102355.74;;;4.24;53.03
62055;BME280;48653;51.742;-1.256;2023-01-26T02:57:15;102357.28;;;3.84;54.02
62055;BME280;48653;51.742;-1.256;2023-01-26T02:59:41;102357.29;;;4.19;53.26
62055;BME280;48653;51.742;-1.256;2023-01-26T03:02:06;102357.76;;;3.80;54.16
62055;BME280;48653;51.742;-1.256;2023-01-26T03:04:31;102361.71;;;3.82;53.83
62055;BME280;48653;51.742;-1.256;2023-01-26T03:06:56;102360.35;;;4.18;52.53
62055;BME280;48653;51.742;-1.256;2023-01-26T03:09:21;102365.54;;;2.79;54.88
62055;BME280;48653;51.742;-1.256;2023-01-26T03:11:47;102365.23;;;3.29;55.09
62055;BME280;48653;51.742;-1.256;2023-01-26T03:14:14;102358.89;;;4.10;53.44
62055;BME280;48653;51.742;-1.256;2023-01-26T03:16:39;102363.38;;;3.38;54.25
62055;BME280;48653;51.742;-1.256;2023-01-26T03:19:03;102365.72;;;3.72;53.67
62055;BME280;48653;51.742;-1.256;2023-01-26T03:21:29;102365.78;;;3.60;53.42
62055;BME280;48653;51.742;-1.256;2023-01-26T03:23:54;102365.42;;;4.00;52.70
62055;BME280;48653;51.742;-1.256;2023-01-26T03:26:20;102368.11;;;4.00;52.29
62055;BME280;48653;51.742;-1.256;2023-01-26T03:28:46;102374.35;;;3.42;53.26
62055;BME280;48653;51.742;-1.256;2023-01-26T03:31:11;102372.69;;;3.04;54.88
62055;BME280;48653;51.742;-1.256;2023-01-26T03:33:36;102375.16;;;3.35;53.64
62055;BME280;48653;51.742;-1.256;2023-01-26T03:36:01;102375.52;;;3.85;52.92
62055;BME280;48653;51.742;-1.256;2023-01-26T03:38:27;102376.20;;;3.22;53.54
62055;BME280;48653;51.742;-1.256;2023-01-26T03:40:57;102372.36;;;3.41;53.13
62055;BME280;48653;51.742;-1.256;2023-01-26T03:43:18;102382.39;;;3.47;53.62
62055;BME280;48653;51.742;-1.256;2023-01-26T03:45:43;102375.15;;;3.70;52.55
62055;BME280;48653;51.742;-1.256;2023-01-26T03:48:11;102373.92;;;3.49;53.02
62055;BME280;48653;51.742;-1.256;2023-01-26T03:50:35;102379.30;;;2.73;55.11
62055;BME280;48653;51.742;-1.256;2023-01-26T03:53:01;102372.62;;;3.13;54.65
62055;BME280;48653;51.742;-1.256;2023-01-26T03:55:26;102377.11;;;2.46;55.60
62055;BME280;48653;51.742;-1.256;2023-01-26T03:57:51;102373.33;;;3.12;54.32
62055;BME280;48653;51.742;-1.256;2023-01-26T04:00:17;102371.59;;;2.51;55.82
62055;BME280;48653;51.742;-1.256;2023-01-26T04:02:42;102373.03;;;2.84;55.06
62055;BME280;48653;51.742;-1.256;2023-01-26T04:05:07;102377.30;;;3.32;54.28
62055;BME280;48653;51.742;-1.256;2023-01-26T04:07:33;102380.14;;;3.73;53.39
62055;BME280;48653;51.742;-1.256;2023-01-26T04:09:57;102383.37;;;3.57;52.99
62055;BME280;48653;51.742;-1.256;2023-01-26T04:12:23;102378.48;;;3.72;52.86
62055;BME280;48653;51.742;-1.256;2023-01-26T04:14:48;102377.15;;;3.75;53.03
62055;BME280;48653;51.742;-1.256;2023-01-26T04:17:14;102379.59;;;3.04;53.25
62055;BME280;48653;51.742;-1.256;2023-01-26T04:19:39;102378.99;;;3.43;53.33
62055;BME280;48653;51.742;-1.256;2023-01-26T04:22:04;102380.93;;;3.86;52.24
62055;BME280;48653;51.742;-1.256;2023-01-26T04:24:30;102385.56;;;2.88;53.59
62055;BME280;48653;51.742;-1.256;2023-01-26T04:26:55;102388.79;;;2.50;54.78
62055;BME280;48653;51.742;-1.256;2023-01-26T04:29:21;102395.24;;;2.58;55.02
62055;BME280;48653;51.742;-1.256;2023-01-26T04:31:46;102399.45;;;3.05;53.30
62055;BME280;48653;51.742;-1.256;2023-01-26T04:34:13;102398.32;;;3.03;53.78
62055;BME280;48653;51.742;-1.256;2023-01-26T04:36:37;102401.41;;;2.86;53.88
62055;BME280;48653;51.742;-1.256;2023-01-26T04:39:02;102393.63;;;3.22;52.95
62055;BME280;48653;51.742;-1.256;2023-01-26T04:41:28;102394.04;;;3.02;53.74
62055;BME280;48653;51.742;-1.256;2023-01-26T04:43:53;102395.42;;;3.55;52.48
62055;BME280;48653;51.742;-1.256;2023-01-26T04:46:19;102402.25;;;3.45;52.22
62055;BME280;48653;51.742;-1.256;2023-01-26T04:48:44;102396.79;;;3.32;52.76
62055;BME280;48653;51.742;-1.256;2023-01-26T04:51:12;102405.92;;;3.22;52.94
62055;BME280;48653;51.742;-1.256;2023-01-26T04:53:34;102405.78;;;3.61;52.39
62055;BME280;48653;51.742;-1.256;2023-01-26T04:56:00;102405.29;;;3.08;53.31
62055;BME280;48653;51.742;-1.256;2023-01-26T04:58:25;102404.91;;;3.31;52.80
62055;BME280;48653;51.742;-1.256;2023-01-26T05:00:50;102402.59;;;3.59;51.61
62055;BME280;48653;51.742;-1.256;2023-01-26T05:03:15;102399.62;;;3.21;52.52
62055;BME280;48653;51.742;-1.256;2023-01-26T05:05:40;102402.94;;;3.30;51.96
62055;BME280;48653;51.742;-1.256;2023-01-26T05:08:06;102409.51;;;3.83;51.85
62055;BME280;48653;51.742;-1.256;2023-01-26T05:10:31;102415.53;;;2.88;53.56
62055;BME280;48653;51.742;-1.256;2023-01-26T05:12:57;102406.33;;;3.26;52.35
62055;BME280;48653;51.742;-1.256;2023-01-26T05:15:22;102409.41;;;2.73;53.90
62055;BME280;48653;51.742;-1.256;2023-01-26T05:17:47;102410.45;;;2.69;53.62
62055;BME280;48653;51.742;-1.256;2023-01-26T05:20:13;102405.69;;;2.90;53.34
62055;BME280;48653;51.742;-1.256;2023-01-26T05:22:38;102401.93;;;2.98;53.19
62055;BME280;48653;51.742;-1.256;2023-01-26T05:25:03;102400.30;;;2.71;53.55
62055;BME280;48653;51.742;-1.256;2023-01-26T05:27:28;102390.46;;;3.07;53.00
62055;BME280;48653;51.742;-1.256;2023-01-26T05:29:54;102390.04;;;2.83;53.51
62055;BME280;48653;51.742;-1.256;2023-01-26T05:32:19;102396.99;;;2.67;53.87
62055;BME280;48653;51.742;-1.256;2023-01-26T05:34:45;102394.18;;;2.19;55.10
62055;BME280;48653;51.742;-1.256;2023-01-26T05:37:10;102403.17;;;1.97;55.90
62055;BME280;48653;51.742;-1.256;2023-01-26T05:39:36;102403.70;;;1.87;56.44
62055;BME280;48653;51.742;-1.256;2023-01-26T05:42:01;102408.29;;;2.66;54.62
62055;BME280;48653;51.742;-1.256;2023-01-26T05:44:27;102400.01;;;2.84;54.28
62055;BME280;48653;51.742;-1.256;2023-01-26T05:46:52;102394.34;;;2.30;55.25
62055;BME280;48653;51.742;-1.256;2023-01-26T05:49:17;102402.72;;;2.82;54.31
62055;BME280;48653;51.742;-1.256;2023-01-26T05:51:43;102403.00;;;2.49;55.26
62055;BME280;48653;51.742;-1.256;2023-01-26T05:54:08;102404.82;;;1.84;56.43
62055;BME280;48653;51.742;-1.256;2023-01-26T05:56:34;102406.94;;;2.09;56.41
62055;BME280;48653;51.742;-1.256;2023-01-26T05:58:59;102413.26;;;2.60;56.23
62055;BME280;48653;51.742;-1.256;2023-01-26T06:01:25;102415.19;;;2.53;55.21
62055;BME280;48653;51.742;-1.256;2023-01-26T06:03:51;102413.84;;;2.46;55.12
62055;BME280;48653;51.742;-1.256;2023-01-26T06:06:16;102416.96;;;2.44;55.13
62055;BME280;48653;51.742;-1.256;2023-01-26T06:08:41;102419.53;;;2.52;55.69
62055;BME280;48653;51.742;-1.256;2023-01-26T06:11:07;102421.23;;;0.91;59.90
62055;BME280;48653;51.742;-1.256;2023-01-26T06:13:32;102418.17;;;0.93;60.00
62055;BME280;48653;51.742;-1.256;2023-01-26T06:15:59;102420.54;;;1.76;58.32
62055;BME280;48653;51.742;-1.256;2023-01-26T06:18:23;102421.73;;;1.15;59.30
62055;BME280;48653;51.742;-1.256;2023-01-26T06:20:48;102422.64;;;2.75;56.16
62055;BME280;48653;51.742;-1.256;2023-01-26T06:23:14;102422.42;;;2.32;56.56
62055;BME280;48653;51.742;-1.256;2023-01-26T06:25:39;102420.14;;;2.69;55.31
62055;BME280;48653;51.742;-1.256;2023-01-26T06:28:04;102431.07;;;2.10;55.88
62055;BME280;48653;51.742;-1.256;2023-01-26T06:30:29;102442.33;;;1.59;57.81
62055;BME280;48653;51.742;-1.256;2023-01-26T06:32:54;102445.33;;;2.08;56.29
62055;BME280;48653;51.742;-1.256;2023-01-26T06:35:20;102449.80;;;2.75;55.18
62055;BME280;48653;51.742;-1.256;2023-01-26T06:37:47;102450.07;;;3.15;53.76
62055;BME280;48653;51.742;-1.256;2023-01-26T06:40:12;102452.24;;;2.53;53.99
62055;BME280;48653;51.742;-1.256;2023-01-26T06:42:37;102456.33;;;2.52;54.53
62055;BME280;48653;51.742;-1.256;2023-01-26T06:45:02;102461.75;;;2.81;53.43
62055;BME280;48653;51.742;-1.256;2023-01-26T06:47:27;102454.51;;;3.36;52.65
62055;BME280;48653;51.742;-1.256;2023-01-26T06:49:52;102451.31;;;3.12;52.87
62055;BME280;48653;51.742;-1.256;2023-01-26T06:52:22;102455.72;;;3.61;52.07
62055;BME280;48653;51.742;-1.256;2023-01-26T06:54:43;102456.40;;;3.74;51.55
62055;BME280;48653;51.742;-1.256;2023-01-26T06:57:08;102459.18;;;3.69;51.78
62055;BME280;48653;51.742;-1.256;2023-01-26T06:59:33;102457.72;;;4.11;50.89
62055;BME280;48653;51.742;-1.256;2023-01-26T07:01:58;102460.39;;;4.10;50.65
62055;BME280;48653;51.742;-1.256;2023-01-26T07:04:25;102470.09;;;3.51;52.11
62055;BME280;48653;51.742;-1.256;2023-01-26T07:06:49;102477.52;;;2.86;53.91
62055;BME280;48653;51.742;-1.256;2023-01-26T07:09:15;102481.55;;;3.44;52.91
62055;BME280;48653;51.742;-1.256;2023-01-26T07:11:40;102475.26;;;2.63;54.42
62055;BME280;48653;51.742;-1.256;2023-01-26T07:14:05;102476.95;;;3.48;52.27
62055;BME280;48653;51.742;-1.256;2023-01-26T07:16:31;102480.47;;;3.33;52.95
62055;BME280;48653;51.742;-1.256;2023-01-26T07:18:56;102480.87;;;3.40;52.15
62055;BME280;48653;51.742;-1.256;2023-01-26T07:21:21;102478.27;;;3.86;51.27
62055;BME280;48653;51.742;-1.256;2023-01-26T07:23:46;102485.82;;;3.47;52.34
62055;BME280;48653;51.742;-1.256;2023-01-26T07:26:12;102481.38;;;2.51;54.54
62055;BME280;48653;51.742;-1.256;2023-01-26T07:28:37;102482.19;;;2.45;54.57
62055;BME280;48653;51.742;-1.256;2023-01-26T07:31:03;102482.61;;;2.79;54.73
62055;BME280;48653;51.742;-1.256;2023-01-26T07:33:28;102476.66;;;2.60;55.27
62055;BME280;48653;51.742;-1.256;2023-01-26T07:35:53;102474.26;;;2.04;55.50
62055;BME280;48653;51.742;-1.256;2023-01-26T07:38:19;102471.88;;;2.38;55.08
62055;BME280;48653;51.742;-1.256;2023-01-26T07:40:44;102473.45;;;2.47;54.67
62055;BME280;48653;51.742;-1.256;2023-01-26T07:43:10;102476.10;;;2.65;54.63
62055;BME280;48653;51.742;-1.256;2023-01-26T07:45:35;102467.27;;;2.54;54.59
62055;BME280;48653;51.742;-1.256;2023-01-26T07:48:00;102479.50;;;3.43;53.04
62055;BME280;48653;51.742;-1.256;2023-01-26T07:50:25;102482.67;;;3.20;52.92
62055;BME280;48653;51.742;-1.256;2023-01-26T07:52:50;102482.21;;;2.70;54.23
62055;BME280;48653;51.742;-1.256;2023-01-26T07:55:16;102487.46;;;2.81;53.80
62055;BME280;48653;51.742;-1.256;2023-01-26T07:57:41;102493.04;;;2.81;53.73
62055;BME280;48653;51.742;-1.256;2023-01-26T08:00:08;102489.72;;;2.45;54.52
62055;BME280;48653;51.742;-1.256;2023-01-26T08:02:32;102493.13;;;3.40;52.72
62055;BME280;48653;51.742;-1.256;2023-01-26T08:04:57;102494.21;;;3.98;51.52
62055;BME280;48653;51.742;-1.256;2023-01-26T08:07:24;102494.22;;;3.32;52.37
62055;BME280;48653;51.742;-1.256;2023-01-26T08:09:49;102495.22;;;2.97;52.46
62055;BME280;48653;51.742;-1.256;2023-01-26T08:12:14;102494.49;;;2.69;52.76
62055;BME280;48653;51.742;-1.256;2023-01-26T08:14:40;102490.46;;;2.43;53.45
62055;BME280;48653;51.742;-1.256;2023-01-26T08:17:06;102489.44;;;2.32;53.17
62055;BME280;48653;51.742;-1.256;2023-01-26T08:19:31;102492.12;;;3.27;51.82
62055;BME280;48653;51.742;-1.256;2023-01-26T08:21:57;102492.22;;;2.95;52.77
62055;BME280;48653;51.742;-1.256;2023-01-26T08:24:22;102486.30;;;3.48;52.47
62055;BME280;48653;51.742;-1.256;2023-01-26T08:26:47;102491.62;;;2.50;53.70
62055;BME280;48653;51.742;-1.256;2023-01-26T08:29:13;102495.41;;;2.88;53.41
62055;BME280;48653;51.742;-1.256;2023-01-26T08:31:38;102492.63;;;1.83;55.34
62055;BME280;48653;51.742;-1.256;2023-01-26T08:34:03;102493.66;;;2.52;54.15
62055;BME280;48653;51.742;-1.256;2023-01-26T08:36:29;102496.49;;;2.56;54.31
62055;BME280;48653;51.742;-1.256;2023-01-26T08:38:54;102494.09;;;2.95;54.83
62055;BME280;48653;51.742;-1.256;2023-01-26T08:41:20;102492.61;;;2.28;55.45
62055;BME280;48653;51.742;-1.256;2023-01-26T08:43:44;102491.99;;;3.12;54.19
62055;BME280;48653;51.742;-1.256;2023-01-26T08:46:09;102494.53;;;3.25;54.16
62055;BME280;48653;51.742;-1.256;2023-01-26T08:48:34;102493.59;;;3.78;53.38
62055;BME280;48653;51.742;-1.256;2023-01-26T08:51:02;102495.55;;;3.48;54.39
62055;BME280;48653;51.742;-1.256;2023-01-26T08:53:25;102496.11;;;2.75;56.22
62055;BME280;48653;51.742;-1.256;2023-01-26T08:55:50;102496.03;;;3.72;55.43
62055;BME280;48653;51.742;-1.256;2023-01-26T08:58:15;102502.47;;;3.55;55.59
62055;BME280;48653;51.742;-1.256;2023-01-26T09:00:40;102508.44;;;2.69;57.76
62055;BME280;48653;51.742;-1.256;2023-01-26T09:03:05;102510.15;;;3.58;56.83
62055;BME280;48653;51.742;-1.256;2023-01-26T09:05:32;102509.10;;;3.39;57.71
62055;BME280;48653;51.742;-1.256;2023-01-26T09:07:55;102511.38;;;2.60;58.45
62055;BME280;48653;51.742;-1.256;2023-01-26T09:12:46;102518.67;;;2.87;59.45
62055;BME280;48653;51.742;-1.256;2023-01-26T09:15:12;102518.65;;;3.79;57.11
62055;BME280;48653;51.742;-1.256;2023-01-26T09:17:37;102516.31;;;2.64;59.99
62055;BME280;48653;51.742;-1.256;2023-01-26T09:20:03;102517.69;;;2.61;59.85
62055;BME280;48653;51.742;-1.256;2023-01-26T09:22:27;102523.90;;;2.92;59.41
62055;BME280;48653;51.742;-1.256;2023-01-26T09:24:52;102529.88;;;2.45;60.88
62055;BME280;48653;51.742;-1.256;2023-01-26T09:27:17;102527.96;;;2.81;60.74
62055;BME280;48653;51.742;-1.256;2023-01-26T09:29:43;102522.40;;;3.39;59.87
62055;BME280;48653;51.742;-1.256;2023-01-26T09:32:08;102518.28;;;3.75;58.88
62055;BME280;48653;51.742;-1.256;2023-01-26T09:34:33;102513.15;;;3.33;60.13
62055;BME280;48653;51.742;-1.256;2023-01-26T09:36:58;102512.91;;;3.68;59.03
62055;BME280;48653;51.742;-1.256;2023-01-26T09:39:24;102513.10;;;4.07;58.37
62055;BME280;48653;51.742;-1.256;2023-01-26T09:42:01;102519.89;;;3.67;59.04
62055;BME280;48653;51.742;-1.256;2023-01-26T09:44:18;102512.78;;;3.58;58.87
62055;BME280;48653;51.742;-1.256;2023-01-26T09:46:49;102513.52;;;4.20;57.78
62055;BME280;48653;51.742;-1.256;2023-01-26T09:49:07;102515.44;;;3.53;59.54
62055;BME280;48653;51.742;-1.256;2023-01-26T09:51:34;102516.97;;;2.90;61.28
62055;BME280;48653;51.742;-1.256;2023-01-26T09:54:00;102526.15;;;3.72;58.90
62055;BME280;48653;51.742;-1.256;2023-01-26T09:56:23;102515.86;;;3.96;57.61
62055;BME280;48653;51.742;-1.256;2023-01-26T09:58:50;102516.40;;;3.78;58.18
62055;BME280;48653;51.742;-1.256;2023-01-26T10:01:17;102523.26;;;4.17;57.93
62055;BME280;48653;51.742;-1.256;2023-01-26T10:03:40;102521.24;;;4.55;57.31
62055;BME280;48653;51.742;-1.256;2023-01-26T10:06:10;102522.83;;;4.45;58.26
62055;BME280;48653;51.742;-1.256;2023-01-26T10:08:27;102526.89;;;4.73;56.85
62055;BME280;48653;51.742;-1.256;2023-01-26T10:10:56;102525.39;;;3.40;59.24
62055;BME280;48653;51.742;-1.256;2023-01-26T10:13:20;102526.30;;;3.83;59.06
62055;BME280;48653;51.742;-1.256;2023-01-26T10:15:46;102522.83;;;3.74;59.05
62055;BME280;48653;51.742;-1.256;2023-01-26T10:18:16;102519.58;;;3.58;60.58
62055;BME280;48653;51.742;-1.256;2023-01-26T10:20:37;102518.37;;;3.99;59.88
62055;BME280;48653;51.742;-1.256;2023-01-26T10:23:03;102524.43;;;4.69;58.17
62055;BME280;48653;51.742;-1.256;2023-01-26T10:25:30;102531.14;;;3.77;59.29
62055;BME280;48653;51.742;-1.256;2023-01-26T10:27:50;102533.10;;;5.16;56.26
62055;BME280;48653;51.742;-1.256;2023-01-26T10:30:17;102537.27;;;4.92;56.62
62055;BME280;48653;51.742;-1.256;2023-01-26T10:32:41;102539.93;;;4.72;56.91
62055;BME280;48653;51.742;-1.256;2023-01-26T10:35:14;102544.44;;;4.25;57.22
62055;BME280;48653;51.742;-1.256;2023-01-26T10:37:32;102545.16;;;4.87;56.48
62055;BME280;48653;51.742;-1.256;2023-01-26T10:40:00;102540.53;;;4.51;57.25
62055;BME280;48653;51.742;-1.256;2023-01-26T10:42:22;102542.85;;;4.24;57.65
62055;BME280;48653;51.742;-1.256;2023-01-26T10:44:49;102532.73;;;4.73;56.60
62055;BME280;48653;51.742;-1.256;2023-01-26T10:47:15;102535.37;;;4.90;56.57
62055;BME280;48653;51.742;-1.256;2023-01-26T10:49:38;102542.60;;;4.25;57.94
62055;BME280;48653;51.742;-1.256;2023-01-26T10:52:06;102535.62;;;4.78;56.92
62055;BME280;48653;51.742;-1.256;2023-01-26T10:54:29;102543.96;;;4.42;57.85
62055;BME280;48653;51.742;-1.256;2023-01-26T10:56:55;102542.46;;;4.34;58.13
62055;BME280;48653;51.742;-1.256;2023-01-26T10:59:25;102541.64;;;4.23;58.88
62055;BME280;48653;51.742;-1.256;2023-01-26T11:01:51;102545.71;;;4.19;60.04
62055;BME280;48653;51.742;-1.256;2023-01-26T11:04:11;102548.22;;;4.25;59.69
62055;BME280;48653;51.742;-1.256;2023-01-26T11:06:35;102548.57;;;4.55;58.32
62055;BME280;48653;51.742;-1.256;2023-01-26T11:09:14;102548.14;;;4.92;58.18
62055;BME280;48653;51.742;-1.256;2023-01-26T11:11:26;102551.38;;;4.11;59.03
62055;BME280;48653;51.742;-1.256;2023-01-26T11:16:19;102552.25;;;4.30;60.22
62055;BME280;48653;51.742;-1.256;2023-01-26T11:18:50;102557.08;;;5.12;58.83
62055;BME280;48653;51.742;-1.256;2023-01-26T11:21:10;102556.07;;;5.28;57.33
62055;BME280;48653;51.742;-1.256;2023-01-26T11:23:40;102554.20;;;5.13;57.81
62055;BME280;48653;51.742;-1.256;2023-01-26T11:26:19;102549.64;;;5.32;57.02
62055;BME280;48653;51.742;-1.256;2023-01-26T11:28:33;102546.13;;;4.73;59.74
62055;BME280;48653;51.742;-1.256;2023-01-26T11:30:58;102539.67;;;5.39;57.48
62055;BME280;48653;51.742;-1.256;2023-01-26T11:33:19;102545.32;;;4.95;58.41
62055;BME280;48653;51.742;-1.256;2023-01-26T11:35:47;102545.28;;;4.85;58.89
62055;BME280;48653;51.742;-1.256;2023-01-26T11:38:15;102531.89;;;5.16;59.04
62055;BME280;48653;51.742;-1.256;2023-01-26T11:40:38;102526.34;;;5.10;58.20
62055;BME280;48653;51.742;-1.256;2023-01-26T11:43:15;102524.12;;;4.94;58.51
62055;BME280;48653;51.742;-1.256;2023-01-26T11:45:24;102533.85;;;4.78;59.03
62055;BME280;48653;51.742;-1.256;2023-01-26T11:47:56;102526.80;;;5.59;57.98
62055;BME280;48653;51.742;-1.256;2023-01-26T11:50:17;102525.55;;;4.99;58.34
62055;BME280;48653;51.742;-1.256;2023-01-26T11:52:44;102520.11;;;5.06;57.67
62055;BME280;48653;51.742;-1.256;2023-01-26T11:57:32;102520.93;;;5.27;58.12
62055;BME280;48653;51.742;-1.256;2023-01-26T11:59:53;102520.94;;;6.37;56.15
62055;BME280;48653;51.742;-1.256;2023-01-26T12:02:27;102520.91;;;6.40;55.12
62055;BME280;48653;51.742;-1.256;2023-01-26T12:04:43;102524.50;;;6.08;55.05
62055;BME280;48653;51.742;-1.256;2023-01-26T12:07:13;102533.38;;;5.41;57.49
62055;BME280;48653;51.742;-1.256;2023-01-26T12:09:36;102521.03;;;5.26;58.77
62055;BME280;48653;51.742;-1.256;2023-01-26T12:12:03;102516.34;;;5.78;56.86
62055;BME280;48653;51.742;-1.256;2023-01-26T12:14:26;102515.95;;;5.19;57.95
62055;BME280;48653;51.742;-1.256;2023-01-26T12:16:58;102518.75;;;5.93;56.69
62055;BME280;48653;51.742;-1.256;2023-01-26T12:19:24;102520.11;;;6.25;55.98
62055;BME280;48653;51.742;-1.256;2023-01-26T12:21:42;102514.89;;;6.79;54.16
62055;BME280;48653;51.742;-1.256;2023-01-26T12:24:05;102515.25;;;5.88;56.52
62055;BME280;48653;51.742;-1.256;2023-01-26T12:26:33;102512.65;;;5.80;56.39
62055;BME280;48653;51.742;-1.256;2023-01-26T12:29:00;102514.83;;;5.97;56.21
62055;BME280;48653;51.742;-1.256;2023-01-26T12:31:22;102512.54;;;6.30;55.60
62055;BME280;48653;51.742;-1.256;2023-01-26T12:33:44;102509.64;;;5.95;56.56
62055;BME280;48653;51.742;-1.256;2023-01-26T12:36:20;102500.98;;;6.16;57.29
62055;BME280;48653;51.742;-1.256;2023-01-26T12:38:44;102504.26;;;5.73;57.45
62055;BME280;48653;51.742;-1.256;2023-01-26T12:41:08;102499.84;;;6.16;56.63
62055;BME280;48653;51.742;-1.256;2023-01-26T12:43:37;102500.27;;;6.22;57.06
62055;BME280;48653;51.742;-1.256;2023-01-26T12:45:53;102500.16;;;6.19;56.53
62055;BME280;48653;51.742;-1.256;2023-01-26T12:48:19;102501.72;;;5.70;56.55
62055;BME280;48653;51.742;-1.256;2023-01-26T12:50:45;102501.92;;;6.01;57.05
62055;BME280;48653;51.742;-1.256;2023-01-26T12:55:39;102501.99;;;6.66;54.66
62055;BME280;48653;51.742;-1.256;2023-01-26T12:58:00;102504.46;;;6.79;54.44